Terminal Aerodrome Forecast
Issued by NWS Upton, NY

Home | Current Version | Previous Version | Text Only | Print | Product List | Glossary On
Versions: 1 2 3 4 5 6 7 8 9 10 11 12 13 14 15 16 17 18 19 20 21 22 23 24 25 26 27 28
000
FTUS41 KOKX 061339 AAB
TAFBDR
TAF AMD
KBDR 061339Z 0614/0712 VRB04KT P6SM SCT120 BKN250
     FM061500 05006KT P6SM BKN250
     FM061900 11007KT P6SM SCT035 BKN150
     FM070000 09008KT 5SM -RA BKN030 BKN100
     FM070300 08010G17KT 3SM -RA BR BKN015 OVC020
     FM070400 06010G17KT 2SM -RADZ BR SCT007 OVC012=

USA.gov is the U.S. government's official web portal to all federal, state and local government web resources and services.